createdAt,value
2023-01-22T00:15:43.975Z,3.60
2023-01-22T00:18:10.292Z,4.00
2023-01-22T00:21:10.540Z,3.60
2023-01-22T00:26:25.256Z,3.80
2023-01-22T00:29:11.325Z,3.60
2023-01-22T00:46:34.537Z,3.70
2023-01-22T00:49:23.014Z,3.60
2023-01-22T00:55:38.497Z,3.70
2023-01-22T01:30:22.549Z,3.70
2023-01-22T01:32:49.738Z,4.60
2023-01-22T01:35:16.615Z,4.00
2023-01-22T01:57:33.030Z,3.70
2023-01-22T02:03:29.853Z,4.30
2023-01-22T02:05:57.283Z,4.40
2023-01-22T02:08:24.087Z,3.70
2023-01-22T02:10:53.123Z,4.10
2023-01-22T02:13:25.537Z,4.30
2023-01-22T02:15:53.193Z,3.90
2023-01-22T02:18:20.429Z,4.30
2023-01-22T02:20:56.663Z,4.20
2023-01-22T02:23:24.662Z,3.80
2023-01-22T02:25:52.672Z,3.80
2023-01-22T02:37:14.617Z,3.70
2023-01-22T02:58:29.769Z,3.70
2023-01-22T03:02:10.579Z,3.30
2023-01-22T03:09:02.768Z,3.80
2023-01-22T03:39:43.097Z,3.60
2023-01-22T03:42:09.903Z,3.90
2023-01-22T03:44:36.669Z,4.50
2023-01-22T03:47:03.547Z,4.20
2023-01-22T03:49:30.381Z,4.10
2023-01-22T03:51:57.363Z,4.20
2023-01-22T03:54:24.216Z,4.40
2023-01-22T03:56:50.971Z,3.60
2023-01-22T04:06:45.479Z,3.60
2023-01-22T04:10:03.787Z,3.60
2023-01-22T04:12:30.532Z,3.60
2023-01-22T04:15:47.622Z,3.70
2023-01-22T04:25:41.835Z,3.60
2023-01-22T04:29:08.014Z,3.70
2023-01-22T04:46:14.647Z,3.70
2023-01-22T04:48:41.477Z,4.70
2023-01-22T04:51:08.838Z,3.70
2023-01-22T04:53:36.224Z,3.70
2023-01-22T04:56:03.698Z,3.90
2023-01-22T04:58:30.995Z,3.80
2023-01-22T05:00:58.473Z,3.70
2023-01-22T05:03:25.984Z,3.70
2023-01-22T05:05:53.664Z,4.30
2023-01-22T05:08:21.042Z,4.20
2023-01-22T05:10:48.451Z,4.20
2023-01-22T05:13:15.836Z,3.70
2023-01-22T05:15:43.341Z,3.80
2023-01-22T05:18:11.034Z,4.40
2023-01-22T05:20:39.041Z,4.00
2023-01-22T05:23:06.434Z,3.80
2023-01-22T05:29:57.439Z,4.40
2023-01-22T05:53:42.847Z,3.90
2023-01-22T05:56:09.931Z,4.60
2023-01-22T05:58:37.035Z,3.80
2023-01-22T06:01:04.073Z,3.90
2023-01-22T06:29:25.069Z,3.90
2023-01-22T06:32:04.251Z,3.90
2023-01-22T06:35:02.168Z,4.00
2023-01-22T06:38:36.611Z,4.00
2023-01-22T06:44:51.613Z,4.00
2023-01-22T06:51:44.777Z,4.40
2023-01-22T07:28:19.050Z,4.00
2023-01-22T07:30:48.673Z,4.00
2023-01-22T07:33:16.071Z,4.80
2023-01-22T07:35:43.279Z,4.60
2023-01-22T07:38:10.132Z,4.40
2023-01-22T07:40:46.012Z,4.10
2023-01-22T08:02:06.243Z,4.50
2023-01-22T08:08:38.441Z,4.70
2023-01-22T08:29:01.768Z,4.20
2023-01-22T08:52:13.307Z,4.30
2023-01-22T09:45:16.235Z,4.70
2023-01-22T10:33:43.367Z,4.90
2023-01-22T10:37:17.077Z,5.10
2023-01-22T10:39:55.166Z,4.80
2023-01-22T10:44:04.883Z,5.60
2023-01-22T10:46:43.161Z,5.40
2023-01-22T10:49:36.383Z,4.90
2023-01-22T10:52:22.897Z,5.00
2023-01-22T10:54:56.902Z,4.90
2023-01-22T10:57:34.680Z,5.00
2023-01-22T11:00:22.016Z,4.90
2023-01-22T11:02:51.457Z,5.00
2023-01-22T11:05:34.110Z,5.40
2023-01-22T11:08:05.707Z,5.00
2023-01-22T11:10:53.848Z,5.50
2023-01-22T11:14:03.159Z,5.00
2023-01-22T11:16:35.242Z,5.00
2023-01-22T11:19:07.057Z,5.30
2023-01-22T11:21:46.164Z,5.00
2023-01-22T11:24:18.767Z,5.00
2023-01-22T11:27:14.110Z,5.00
2023-01-22T11:29:50.411Z,5.00
2023-01-22T11:32:39.147Z,5.40
2023-01-22T11:35:23.463Z,5.10
2023-01-22T11:38:02.760Z,5.10
2023-01-22T11:40:32.262Z,5.10
2023-01-22T11:43:26.185Z,5.10
2023-01-22T11:46:14.808Z,5.10
2023-01-22T11:49:06.402Z,5.10
2023-01-22T11:51:41.307Z,5.10
2023-01-22T11:54:12.142Z,5.20
2023-01-22T11:57:20.692Z,5.10
2023-01-22T11:59:50.758Z,5.10
2023-01-22T12:02:30.293Z,5.10
2023-01-22T12:05:13.611Z,5.10
2023-01-22T12:08:00.271Z,5.20
2023-01-22T12:10:33.340Z,5.20
2023-01-22T12:13:22.200Z,5.20
2023-01-22T12:16:12.835Z,5.20
2023-01-22T12:19:02.101Z,5.20
2023-01-22T12:21:44.731Z,5.20
2023-01-22T12:24:22.560Z,5.20
2023-01-22T12:27:00.595Z,5.20
2023-01-22T12:29:29.103Z,5.20
2023-01-22T12:32:09.019Z,5.20
2023-01-22T12:34:45.365Z,5.20
2023-01-22T12:37:17.172Z,5.20
2023-01-22T12:40:18.892Z,5.50
2023-01-22T12:43:05.561Z,5.20
2023-01-22T12:45:32.817Z,5.20
2023-01-22T12:48:15.124Z,5.60
2023-01-22T12:50:56.597Z,5.60
2023-01-22T12:53:34.516Z,5.20
2023-01-22T12:56:10.426Z,5.20
2023-01-22T12:58:40.545Z,5.20
2023-01-22T13:01:11.585Z,5.20
2023-01-22T13:03:41.060Z,5.30
2023-01-22T13:06:30.447Z,5.20
2023-01-22T13:08:58.420Z,5.20
2023-01-22T13:11:34.254Z,5.30
2023-01-22T13:14:15.212Z,5.20
2023-01-22T13:17:01.428Z,5.10
2023-01-22T13:19:42.580Z,5.20
2023-01-22T13:22:15.775Z,5.20
2023-01-22T13:24:57.549Z,5.20
2023-01-22T13:27:31.135Z,5.20
2023-01-22T13:30:21.995Z,5.50
2023-01-22T13:32:49.308Z,5.20
2023-01-22T13:35:19.764Z,5.20
2023-01-22T13:37:51.687Z,5.20
2023-01-22T13:40:24.741Z,5.40
2023-01-22T13:42:53.500Z,5.20
2023-01-22T13:45:31.610Z,5.20
2023-01-22T13:48:04.470Z,5.30
2023-01-22T13:50:32.808Z,5.70
2023-01-22T13:53:03.923Z,5.50
2023-01-22T13:55:31.566Z,5.30
2023-01-22T13:58:01.747Z,6.00
2023-01-22T14:00:34.701Z,5.70
2023-01-22T14:03:03.094Z,5.30
2023-01-22T14:05:35.763Z,5.90
2023-01-22T14:08:09.996Z,5.30
2023-01-22T14:10:38.285Z,5.30
2023-01-22T14:13:11.523Z,5.30
2023-01-22T14:15:40.111Z,5.30
2023-01-22T14:18:09.147Z,5.40
2023-01-22T14:20:41.581Z,5.30
2023-01-22T14:23:09.015Z,5.30
2023-01-22T14:25:45.738Z,5.90
2023-01-22T14:28:14.217Z,5.30
2023-01-22T14:30:41.562Z,5.80
2023-01-22T14:33:19.325Z,5.90
2023-01-22T14:35:46.830Z,5.40
2023-01-22T14:38:14.291Z,5.70
2023-01-22T14:40:42.499Z,5.40
2023-01-22T14:43:09.980Z,5.40
2023-01-22T14:45:39.675Z,5.80
2023-01-22T14:48:07.140Z,5.40
2023-01-22T14:50:34.667Z,5.30
2023-01-22T14:53:01.928Z,5.60
2023-01-22T14:55:29.304Z,5.50
2023-01-22T14:57:58.022Z,5.70
2023-01-22T15:00:28.202Z,5.60
2023-01-22T15:02:56.784Z,5.50
2023-01-22T15:05:24.886Z,5.60
2023-01-22T15:07:52.068Z,5.60
2023-01-22T15:10:19.831Z,5.30
2023-01-22T15:12:49.019Z,5.30
2023-01-22T15:15:25.715Z,5.20
2023-01-22T15:17:54.581Z,5.30
2023-01-22T15:20:22.491Z,5.30
2023-01-22T15:22:50.160Z,5.20
2023-01-22T15:25:18.016Z,5.40
2023-01-22T15:27:45.742Z,5.20
2023-01-22T15:30:13.831Z,5.30
2023-01-22T15:32:41.435Z,5.20
2023-01-22T15:35:09.353Z,5.20
2023-01-22T15:37:37.035Z,5.20
2023-01-22T15:40:05.057Z,5.20
2023-01-22T15:42:32.642Z,5.20
2023-01-22T15:45:00.131Z,5.90
2023-01-22T15:47:27.750Z,5.30
2023-01-22T15:49:55.450Z,5.30
2023-01-22T15:52:25.794Z,5.30
2023-01-22T15:54:54.289Z,5.50
2023-01-22T15:57:21.106Z,5.20
2023-01-22T16:07:09.424Z,5.30
2023-01-22T16:17:10.338Z,5.50
2023-01-22T16:20:14.451Z,6.00
2023-01-22T16:26:13.672Z,5.30
2023-01-22T16:50:46.297Z,5.40
2023-01-22T17:00:13.989Z,5.30
2023-01-22T17:14:50.373Z,5.40
2023-01-22T17:33:07.781Z,5.20
2023-01-22T17:35:36.134Z,5.20
2023-01-22T17:47:26.122Z,5.10
2023-01-22T18:17:57.698Z,5.10
2023-01-22T18:32:18.509Z,5.50
2023-01-22T18:46:14.391Z,5.70
2023-01-22T19:05:08.983Z,5.20
2023-01-22T19:11:03.475Z,5.70
2023-01-22T19:19:01.725Z,5.20
2023-01-22T20:18:07.913Z,5.20
2023-01-22T20:29:09.609Z,5.20
2023-01-22T20:51:15.466Z,5.30
2023-01-22T20:58:17.288Z,5.30
2023-01-22T21:22:43.536Z,5.80
2023-01-22T21:29:39.520Z,5.70
2023-01-22T21:40:19.765Z,5.30
2023-01-22T22:06:35.138Z,5.50
2023-01-22T22:10:06.493Z,5.20
2023-01-22T22:42:01.295Z,5.10
2023-01-22T23:02:22.814Z,5.10
2023-01-22T23:29:42.429Z,5.20
2023-01-22T23:42:51.473Z,5.30
